Time;durP1;ratioP1;P1;durP2;ratioP2;P2;SDS_P1;SDS_P2;PMS_P1;PMS_P2;Temp;Humidity;BMP_temperature;BMP_pressure;BME280_temperature;BME280_humidity;BME280_pressure;Samples;Min_cycle;Max_cycle;Signal;HPM_P1;HPM_P2
2024/01/01 00:02:26;;;;;;;30.83;21.03;;;3.50;99.90;;;;;;4977394;28;20304;-70
2024/01/01 00:04:53;;;;;;;34.63;25.17;;;3.30;99.90;;;;;;4977542;28;20208;-70
2024/01/01 00:07:19;;;;;;;42.30;28.33;;;3.20;99.90;;;;;;4977512;28;20209;-72
2024/01/01 00:09:48;;;;;;;41.63;29.73;;;3.10;99.90;;;;;;4977341;28;20228;-72
2024/01/01 00:12:17;;;;;;;52.43;32.87;;;3.00;99.90;;;;;;4977324;28;20209;-70
2024/01/01 00:14:44;;;;;;;46.80;31.93;;;2.90;99.90;;;;;;4977062;28;20208;-71
2024/01/01 00:17:13;;;;;;;52.17;35.13;;;2.80;99.90;;;;;;4977606;28;20201;-71
2024/01/01 00:19:40;;;;;;;52.03;35.33;;;2.80;99.90;;;;;;4977186;28;20199;-70
2024/01/01 00:22:07;;;;;;;54.87;36.50;;;2.80;99.90;;;;;;4977173;28;20197;-71
2024/01/01 00:24:33;;;;;;;54.33;36.97;;;2.90;99.90;;;;;;4977088;28;20300;-71
2024/01/01 00:27:01;;;;;;;55.00;37.20;;;2.90;99.90;;;;;;4976888;28;20209;-71
2024/01/01 00:29:28;;;;;;;43.77;30.80;;;2.90;99.90;;;;;;4976629;28;20224;-71
2024/01/01 00:31:55;;;;;;;41.03;28.20;;;2.90;99.90;;;;;;4976985;28;20260;-72
2024/01/01 00:34:22;;;;;;;35.97;23.87;;;3.00;99.90;;;;;;4977077;28;20202;-71
2024/01/01 00:36:49;;;;;;;30.60;21.57;;;3.00;99.90;;;;;;4976834;28;20292;-72
2024/01/01 00:39:16;;;;;;;31.17;20.50;;;3.00;99.90;;;;;;4975733;28;20657;-71
2024/01/01 00:41:45;;;;;;;27.83;19.47;;;3.00;99.90;;;;;;4976696;28;20209;-72
2024/01/01 00:44:13;;;;;;;27.80;19.13;;;3.10;99.90;;;;;;4976863;28;20211;-72
2024/01/01 00:46:40;;;;;;;25.07;17.33;;;3.10;99.90;;;;;;4976708;28;20256;-72
2024/01/01 00:49:06;;;;;;;24.50;18.13;;;3.00;99.90;;;;;;4976699;28;20229;-72
2024/01/01 00:51:33;;;;;;;27.97;17.57;;;3.00;99.90;;;;;;4976463;28;20206;-71
2024/01/01 00:54:00;;;;;;;27.93;17.60;;;3.00;99.90;;;;;;4976562;28;20254;-71
2024/01/01 00:56:26;;;;;;;23.63;16.67;;;3.00;99.90;;;;;;4976247;28;20206;-71
2024/01/01 00:58:53;;;;;;;23.67;15.23;;;3.00;99.90;;;;;;4976768;28;20216;-71
2024/01/01 01:01:21;;;;;;;22.23;16.43;;;3.00;99.90;;;;;;4976431;28;20211;-71
2024/01/01 01:03:47;;;;;;;20.80;15.03;;;3.00;99.90;;;;;;4976131;28;20553;-71
2024/01/01 01:06:14;;;;;;;22.83;15.20;;;3.00;99.90;;;;;;4976266;28;20210;-72
2024/01/01 01:08:41;;;;;;;23.80;15.60;;;2.90;99.90;;;;;;4976048;28;20284;-71
2024/01/01 01:11:07;;;;;;;19.87;14.13;;;2.90;99.90;;;;;;4975982;28;20207;-71
2024/01/01 01:13:34;;;;;;;19.83;14.10;;;2.80;99.90;;;;;;4976146;28;20217;-71
2024/01/01 01:16:00;;;;;;;19.67;12.73;;;2.80;99.90;;;;;;4976147;28;20201;-72
2024/01/01 01:18:28;;;;;;;17.17;11.83;;;2.90;99.90;;;;;;4976016;28;20271;-71
2024/01/01 01:20:55;;;;;;;19.73;12.07;;;3.00;99.90;;;;;;4976134;28;20204;-71
2024/01/01 01:23:22;;;;;;;17.00;11.83;;;3.10;99.90;;;;;;4975811;28;20206;-71
2024/01/01 01:25:49;;;;;;;16.17;11.57;;;3.30;99.90;;;;;;4976015;28;20205;-71
2024/01/01 01:28:21;;;;;;;13.30;9.97;;;3.40;99.90;;;;;;4975844;28;20233;-71
2024/01/01 01:30:48;;;;;;;16.07;10.87;;;3.50;99.90;;;;;;4975775;28;20279;-71
2024/01/01 01:33:15;;;;;;;15.93;10.80;;;3.60;99.90;;;;;;4975671;28;20212;-71
2024/01/01 01:35:42;;;;;;;16.67;11.10;;;3.70;99.90;;;;;;4975636;28;20248;-71
2024/01/01 01:38:09;;;;;;;17.30;11.47;;;3.70;99.90;;;;;;4975422;28;20207;-71
2024/01/01 01:40:36;;;;;;;17.17;11.37;;;3.70;99.90;;;;;;4975710;28;20204;-71
2024/01/01 01:43:02;;;;;;;15.77;10.77;;;3.70;99.90;;;;;;4975381;28;20236;-72
2024/01/01 01:45:29;;;;;;;16.20;11.53;;;3.60;99.90;;;;;;4975330;28;20797;-72
2024/01/01 01:47:56;;;;;;;16.63;10.93;;;3.60;99.90;;;;;;4975339;28;20201;-72
2024/01/01 01:50:22;;;;;;;14.60;10.43;;;3.60;99.90;;;;;;4975118;28;20287;-72
2024/01/01 01:52:50;;;;;;;19.13;11.77;;;3.70;99.90;;;;;;4975225;28;20202;-72
2024/01/01 01:55:22;;;;;;;17.53;11.50;;;3.60;99.90;;;;;;4975437;28;20241;-71
2024/01/01 01:57:49;;;;;;;17.67;11.53;;;3.50;99.90;;;;;;4975424;28;20202;-72
2024/01/01 02:00:16;;;;;;;17.10;11.20;;;3.40;99.90;;;;;;4975143;28;20201;-72
2024/01/01 02:02:43;;;;;;;15.53;10.50;;;3.40;99.90;;;;;;4975185;28;20258;-72
2024/01/01 02:05:10;;;;;;;17.10;11.40;;;3.40;99.90;;;;;;4975177;28;20202;-72
2024/01/01 02:07:37;;;;;;;14.37;10.97;;;3.60;99.90;;;;;;4975262;28;20206;-72
2024/01/01 02:10:05;;;;;;;16.10;10.97;;;3.60;99.90;;;;;;4975069;28;20233;-73
2024/01/01 02:12:32;;;;;;;18.43;11.73;;;3.80;99.90;;;;;;4974974;28;20203;-73
2024/01/01 02:14:59;;;;;;;17.23;10.80;;;3.80;99.90;;;;;;4974934;28;20296;-72
2024/01/01 02:17:25;;;;;;;17.60;10.97;;;3.80;99.90;;;;;;4974896;28;20268;-72
2024/01/01 02:19:52;;;;;;;14.70;10.07;;;3.80;99.90;;;;;;4974747;28;20213;-73
2024/01/01 02:22:19;;;;;;;17.40;10.77;;;3.90;99.90;;;;;;4975828;28;20256;-72
2024/01/01 02:24:46;;;;;;;14.80;9.43;;;3.90;99.90;;;;;;4974872;28;20206;-73
2024/01/01 02:27:13;;;;;;;14.53;10.20;;;3.90;99.90;;;;;;4974707;28;20250;-72
2024/01/01 02:29:40;;;;;;;13.23;8.93;;;4.00;99.90;;;;;;4974718;28;20227;-72
2024/01/01 02:32:06;;;;;;;15.43;9.57;;;4.00;99.90;;;;;;4974537;28;20202;-71
2024/01/01 02:34:33;;;;;;;14.87;9.80;;;4.00;99.90;;;;;;4974519;28;20202;-71
2024/01/01 02:37:00;;;;;;;14.87;9.23;;;4.00;99.90;;;;;;4974441;28;20729;-71
2024/01/01 02:39:26;;;;;;;17.03;9.13;;;4.10;99.90;;;;;;4974545;28;20259;-71
2024/01/01 02:41:54;;;;;;;13.80;9.20;;;4.00;99.90;;;;;;4974257;28;20248;-71
2024/01/01 02:44:21;;;;;;;13.77;9.43;;;4.10;99.90;;;;;;4974484;28;20268;-71
2024/01/01 02:46:47;;;;;;;14.83;9.47;;;4.00;99.90;;;;;;4974311;28;20202;-72
2024/01/01 02:49:14;;;;;;;16.13;9.20;;;3.90;99.90;;;;;;4974138;28;20623;-72
2024/01/01 02:51:43;;;;;;;13.87;10.03;;;3.90;99.90;;;;;;4974503;28;20260;-71
2024/01/01 02:54:10;;;;;;;15.60;9.17;;;3.90;99.90;;;;;;4974354;28;20309;-72
2024/01/01 02:56:37;;;;;;;14.33;10.30;;;3.90;99.90;;;;;;4974231;28;20204;-71
2024/01/01 02:59:05;;;;;;;19.30;10.30;;;3.90;99.90;;;;;;4974197;28;20202;-72
2024/01/01 03:01:31;;;;;;;17.63;10.03;;;3.80;99.90;;;;;;4974021;28;20201;-73
2024/01/01 03:03:58;;;;;;;14.67;9.50;;;3.80;99.90;;;;;;4973873;28;20205;-72
2024/01/01 03:06:25;;;;;;;14.03;9.70;;;3.70;99.90;;;;;;4974171;28;20207;-72
2024/01/01 03:08:51;;;;;;;13.63;9.77;;;3.80;99.90;;;;;;4974004;28;20685;-72
2024/01/01 03:11:18;;;;;;;15.37;9.23;;;3.70;99.90;;;;;;4974006;28;20234;-72
2024/01/01 03:13:45;;;;;;;15.70;10.33;;;3.70;99.90;;;;;;4973989;28;20202;-72
2024/01/01 03:16:15;;;;;;;15.30;10.03;;;3.80;99.90;;;;;;4973996;28;20254;-72
2024/01/01 03:18:41;;;;;;;13.57;9.13;;;3.70;99.90;;;;;;4974186;28;20257;-72
2024/01/01 03:21:08;;;;;;;15.67;10.00;;;3.70;99.90;;;;;;4974104;28;20206;-72
2024/01/01 03:23:35;;;;;;;16.90;9.47;;;3.70;99.90;;;;;;4973904;28;20252;-72
2024/01/01 03:26:01;;;;;;;14.37;9.63;;;3.70;99.90;;;;;;4973926;28;20209;-72
2024/01/01 03:28:28;;;;;;;19.63;10.53;;;3.70;99.90;;;;;;4973794;28;20201;-72
2024/01/01 03:30:54;;;;;;;15.17;10.13;;;3.80;99.90;;;;;;4973950;28;20285;-72
2024/01/01 03:33:22;;;;;;;15.17;9.10;;;3.90;99.90;;;;;;4973946;28;20211;-73
2024/01/01 03:35:49;;;;;;;15.37;9.80;;;3.90;99.90;;;;;;4973915;28;20198;-73
2024/01/01 03:38:16;;;;;;;15.83;9.67;;;3.90;99.90;;;;;;4973905;28;20306;-73
2024/01/01 03:40:43;;;;;;;15.83;9.83;;;3.90;99.90;;;;;;4973838;28;20247;-73
2024/01/01 03:43:09;;;;;;;13.63;8.40;;;3.90;99.90;;;;;;4973637;28;20285;-73
2024/01/01 03:45:36;;;;;;;15.93;9.17;;;4.00;99.90;;;;;;4973868;28;20256;-72
2024/01/01 03:48:03;;;;;;;15.70;9.73;;;4.00;99.90;;;;;;4973817;28;20233;-73
2024/01/01 03:50:31;;;;;;;17.03;9.70;;;3.90;99.90;;;;;;4973751;28;20233;-72
2024/01/01 03:52:57;;;;;;;16.17;9.37;;;3.90;99.90;;;;;;4973776;28;20209;-72
2024/01/01 03:55:24;;;;;;;18.10;10.07;;;3.90;99.90;;;;;;4973631;28;20221;-74
2024/01/01 03:57:50;;;;;;;14.30;9.00;;;4.00;99.90;;;;;;4973776;28;20259;-72
2024/01/01 04:00:18;;;;;;;15.57;10.00;;;4.00;99.90;;;;;;4973812;28;20203;-72
2024/01/01 04:02:46;;;;;;;14.27;9.67;;;4.00;99.90;;;;;;4973678;28;20198;-72
2024/01/01 04:05:13;;;;;;;14.97;8.80;;;4.00;99.90;;;;;;4973688;28;20201;-74
2024/01/01 04:07:41;;;;;;;14.03;9.60;;;4.00;99.90;;;;;;4973561;28;20226;-73
2024/01/01 04:10:10;;;;;;;13.83;9.70;;;4.10;99.90;;;;;;4973455;28;20225;-76
2024/01/01 04:12:37;;;;;;;14.17;9.10;;;4.00;99.90;;;;;;4973560;28;20209;-76
2024/01/01 04:15:04;;;;;;;18.73;9.60;;;4.00;99.90;;;;;;4974496;28;20239;-77
2024/01/01 04:17:31;;;;;;;14.27;8.87;;;4.00;99.90;;;;;;4977032;28;20288;-76
2024/01/01 04:19:57;;;;;;;16.77;9.47;;;4.00;99.90;;;;;;4977144;28;20208;-77
2024/01/01 04:22:24;;;;;;;14.30;9.63;;;4.10;99.90;;;;;;4977031;28;20255;-76
2024/01/01 04:24:52;;;;;;;15.50;9.80;;;4.10;99.90;;;;;;4976791;28;20250;-77
2024/01/01 04:27:19;;;;;;;17.07;9.00;;;4.10;99.90;;;;;;4976981;28;20248;-76
2024/01/01 04:29:46;;;;;;;13.47;9.20;;;4.00;99.90;;;;;;4976919;28;20276;-76
2024/01/01 04:32:12;;;;;;;15.90;8.37;;;4.00;99.90;;;;;;4976868;28;20205;-77
2024/01/01 04:34:39;;;;;;;15.10;9.30;;;4.00;99.90;;;;;;4976900;28;20202;-76
2024/01/01 04:37:05;;;;;;;17.40;9.73;;;4.10;99.90;;;;;;4976682;28;20211;-79
2024/01/01 04:39:32;;;;;;;16.40;8.73;;;4.00;99.90;;;;;;4976755;28;20207;-78
2024/01/01 04:42:00;;;;;;;11.93;8.33;;;4.00;99.90;;;;;;4976666;28;20202;-78
2024/01/01 04:44:26;;;;;;;14.10;8.47;;;4.00;99.90;;;;;;4976617;28;20736;-76
2024/01/01 04:46:53;;;;;;;13.93;8.13;;;4.00;99.90;;;;;;4976549;28;20209;-78
2024/01/01 04:49:20;;;;;;;13.27;7.97;;;4.00;99.90;;;;;;4976479;28;20205;-78
2024/01/01 04:51:46;;;;;;;12.67;7.70;;;3.90;99.90;;;;;;4976334;28;20235;-77
2024/01/01 04:54:13;;;;;;;15.10;8.97;;;3.80;99.90;;;;;;4976673;28;20243;-77
2024/01/01 04:56:39;;;;;;;15.73;8.60;;;3.80;99.90;;;;;;4976342;28;20708;-76
2024/01/01 04:59:07;;;;;;;11.50;8.13;;;3.80;99.90;;;;;;4976396;28;20204;-76
2024/01/01 05:01:34;;;;;;;12.23;7.60;;;3.80;99.90;;;;;;4976342;28;20201;-76
2024/01/01 05:04:01;;;;;;;15.13;8.63;;;3.70;99.90;;;;;;4976283;28;20257;-76
2024/01/01 05:06:27;;;;;;;16.43;8.43;;;3.70;99.90;;;;;;4976099;28;20205;-76
2024/01/01 05:08:54;;;;;;;13.90;8.57;;;3.60;99.90;;;;;;4976130;28;20264;-75
2024/01/01 05:11:21;;;;;;;14.63;8.13;;;3.70;99.90;;;;;;4976203;28;20234;-75
2024/01/01 05:13:47;;;;;;;13.17;7.63;;;3.70;99.90;;;;;;4976104;28;20223;-75
2024/01/01 05:16:15;;;;;;;11.00;7.33;;;3.80;99.90;;;;;;4976085;28;20201;-75
2024/01/01 05:18:42;;;;;;;14.87;7.23;;;3.80;99.90;;;;;;4975971;28;20248;-76
2024/01/01 05:21:09;;;;;;;16.40;7.90;;;3.80;99.90;;;;;;4975898;28;20345;-75
2024/01/01 05:23:35;;;;;;;13.23;7.47;;;3.80;99.90;;;;;;4976003;28;20201;-75
2024/01/01 05:26:03;;;;;;;12.50;7.57;;;3.80;99.90;;;;;;4975493;28;20197;-75
2024/01/01 05:28:29;;;;;;;11.27;7.53;;;3.70;99.90;;;;;;4975790;28;20206;-75
2024/01/01 05:30:56;;;;;;;16.50;8.07;;;3.80;99.90;;;;;;4975743;28;20228;-75
2024/01/01 05:33:24;;;;;;;12.53;7.63;;;3.70;99.90;;;;;;4975773;28;20202;-74
2024/01/01 05:35:51;;;;;;;12.67;7.43;;;3.80;99.90;;;;;;4975577;28;20256;-74
2024/01/01 05:38:17;;;;;;;12.67;7.27;;;3.80;99.90;;;;;;4975780;28;20207;-74
2024/01/01 05:40:45;;;;;;;13.20;7.50;;;3.80;99.90;;;;;;4975718;28;20681;-74
2024/01/01 05:43:12;;;;;;;12.30;7.47;;;3.80;99.90;;;;;;4975505;28;20260;-74
2024/01/01 05:45:39;;;;;;;11.07;7.60;;;3.90;99.90;;;;;;4975393;28;20254;-75
2024/01/01 05:48:06;;;;;;;13.47;8.10;;;3.90;99.90;;;;;;4975393;28;20228;-74
2024/01/01 05:50:34;;;;;;;16.70;10.33;;;4.00;99.90;;;;;;4975592;28;20289;-74
2024/01/01 05:53:01;;;;;;;13.37;7.23;;;4.00;99.90;;;;;;4975171;28;20247;-74
2024/01/01 05:55:27;;;;;;;11.30;6.67;;;4.00;99.90;;;;;;4975366;28;20269;-74
2024/01/01 05:57:54;;;;;;;14.13;6.47;;;4.00;99.90;;;;;;4975203;28;20805;-74
2024/01/01 06:00:21;;;;;;;9.30;6.00;;;4.00;99.90;;;;;;4975238;28;20268;-74
2024/01/01 06:02:48;;;;;;;11.57;6.67;;;4.00;99.90;;;;;;4975085;28;20203;-74
2024/01/01 06:05:14;;;;;;;10.93;6.43;;;4.00;99.90;;;;;;4975294;28;20212;-74
2024/01/01 06:07:43;;;;;;;11.53;6.23;;;4.00;99.90;;;;;;4974988;28;20664;-74
2024/01/01 06:10:10;;;;;;;13.47;6.10;;;3.90;99.90;;;;;;4975060;28;20201;-74
2024/01/01 06:12:37;;;;;;;12.83;6.03;;;3.90;99.90;;;;;;4974978;28;20253;-74
2024/01/01 06:15:04;;;;;;;14.27;6.90;;;3.90;99.90;;;;;;4974779;28;20200;-74
2024/01/01 06:17:30;;;;;;;8.93;5.47;;;3.80;99.90;;;;;;4975035;28;20205;-74
2024/01/01 06:19:57;;;;;;;10.03;6.40;;;3.80;99.90;;;;;;4975154;28;20633;-74
2024/01/01 06:22:24;;;;;;;13.00;6.47;;;3.90;99.90;;;;;;4974963;28;20210;-74
2024/01/01 06:24:52;;;;;;;12.23;6.10;;;3.90;99.90;;;;;;4974845;28;20196;-73
2024/01/01 06:27:18;;;;;;;8.57;5.70;;;3.90;99.90;;;;;;4974666;28;20262;-74
2024/01/01 06:29:45;;;;;;;11.03;6.20;;;3.90;99.90;;;;;;4974749;28;20292;-74
2024/01/01 06:32:12;;;;;;;9.77;6.40;;;3.90;99.90;;;;;;4974807;28;20237;-73
2024/01/01 06:34:39;;;;;;;6.23;4.73;;;4.00;99.90;;;;;;4974665;28;20298;-73
2024/01/01 06:37:07;;;;;;;9.80;5.67;;;4.00;99.90;;;;;;4974146;28;20197;-73
2024/01/01 06:39:34;;;;;;;6.70;4.93;;;4.00;99.90;;;;;;4974454;28;20210;-73
2024/01/01 06:42:02;;;;;;;9.83;5.23;;;4.00;99.90;;;;;;4974170;28;20658;-73
2024/01/01 06:44:28;;;;;;;10.10;4.83;;;4.10;99.90;;;;;;4974232;28;20204;-72
2024/01/01 06:46:55;;;;;;;8.80;5.80;;;4.10;99.90;;;;;;4974569;28;20210;-72
2024/01/01 06:49:21;;;;;;;9.33;5.97;;;4.20;99.90;;;;;;4974378;28;20661;-72
2024/01/01 06:51:50;;;;;;;8.73;4.70;;;4.20;99.90;;;;;;4974306;28;20285;-73
2024/01/01 06:54:17;;;;;;;8.80;4.40;;;4.20;99.90;;;;;;4974321;28;20214;-72
2024/01/01 06:56:44;;;;;;;7.80;4.23;;;4.20;99.90;;;;;;4974282;28;20207;-73
2024/01/01 06:59:13;;;;;;;8.53;4.33;;;4.20;99.90;;;;;;4974727;28;20203;-72
2024/01/01 07:01:41;;;;;;;6.30;3.97;;;4.20;99.90;;;;;;4974429;28;20274;-72
2024/01/01 07:04:08;;;;;;;9.87;4.03;;;4.20;99.90;;;;;;4974284;28;20200;-72
2024/01/01 07:06:34;;;;;;;25.53;16.13;;;4.10;99.90;;;;;;4974190;28;20232;-72
2024/01/01 07:09:01;;;;;;;9.23;5.87;;;4.10;99.90;;;;;;4974185;28;20293;-72
2024/01/01 07:11:28;;;;;;;7.77;3.43;;;4.10;99.90;;;;;;4974270;28;20276;-72
2024/01/01 07:13:55;;;;;;;6.67;3.60;;;4.10;99.90;;;;;;4974362;28;20208;-72
2024/01/01 07:16:22;;;;;;;9.37;3.43;;;4.20;99.90;;;;;;4974177;28;20211;-72
2024/01/01 07:18:49;;;;;;;8.03;3.50;;;4.10;99.90;;;;;;4974067;28;20206;-71
2024/01/01 07:21:16;;;;;;;8.03;3.77;;;4.10;99.90;;;;;;4974105;28;20208;-72
2024/01/01 07:23:42;;;;;;;6.80;3.37;;;4.00;99.90;;;;;;4973982;28;20256;-72
2024/01/01 07:26:10;;;;;;;7.20;3.20;;;4.00;99.90;;;;;;4973846;28;20243;-71
2024/01/01 07:28:37;;;;;;;5.63;3.67;;;4.00;99.90;;;;;;4974118;28;20231;-72
2024/01/01 07:31:03;;;;;;;6.50;2.80;;;4.00;99.90;;;;;;4973872;28;20230;-72
2024/01/01 07:33:32;;;;;;;7.90;3.20;;;4.00;99.90;;;;;;4974197;28;20208;-72
2024/01/01 07:35:58;;;;;;;9.67;3.60;;;3.90;99.90;;;;;;4973946;28;20207;-71
2024/01/01 07:38:25;;;;;;;8.80;3.40;;;3.80;99.90;;;;;;4973752;28;20713;-72
2024/01/01 07:40:52;;;;;;;7.23;3.00;;;3.90;99.90;;;;;;4973937;28;20214;-72
2024/01/01 07:43:19;;;;;;;6.90;2.90;;;4.00;99.90;;;;;;4973694;28;20628;-72
2024/01/01 07:45:45;;;;;;;4.23;2.83;;;3.90;99.90;;;;;;4973802;28;20208;-72
2024/01/01 07:48:12;;;;;;;5.13;3.20;;;3.90;99.90;;;;;;4973844;28;20206;-72
2024/01/01 07:50:40;;;;;;;5.87;3.40;;;4.00;99.90;;;;;;4977404;28;20200;-72
2024/01/01 07:53:06;;;;;;;9.10;2.93;;;4.00;99.90;;;;;;4977544;28;20252;-72
2024/01/01 07:55:33;;;;;;;5.90;2.93;;;4.00;99.90;;;;;;4977504;28;20657;-72
2024/01/01 07:58:00;;;;;;;6.93;2.97;;;4.20;99.90;;;;;;4977603;28;20237;-71
2024/01/01 08:00:27;;;;;;;7.53;3.07;;;4.30;99.90;;;;;;4977448;28;20265;-72
2024/01/01 08:02:54;;;;;;;5.97;2.80;;;4.30;99.90;;;;;;4977632;28;20202;-72
2024/01/01 08:05:20;;;;;;;5.27;2.90;;;4.40;99.90;;;;;;4977275;28;20206;-72
2024/01/01 08:07:48;;;;;;;7.80;3.07;;;4.50;99.90;;;;;;4977279;28;20206;-71
2024/01/01 08:10:15;;;;;;;6.57;3.50;;;4.50;99.90;;;;;;4977429;28;20207;-72
2024/01/01 08:12:42;;;;;;;8.87;2.47;;;4.60;99.90;;;;;;4977259;28;20321;-72
2024/01/01 08:15:09;;;;;;;5.90;2.60;;;4.70;99.90;;;;;;4977216;28;20211;-71
2024/01/01 08:17:35;;;;;;;6.43;2.57;;;4.70;99.90;;;;;;4977159;28;20265;-72
2024/01/01 08:20:02;;;;;;;6.13;2.20;;;4.80;99.90;;;;;;4976870;28;20204;-73
2024/01/01 08:22:29;;;;;;;7.73;2.70;;;4.90;99.90;;;;;;4976948;28;20599;-72
2024/01/01 08:24:57;;;;;;;6.03;2.80;;;4.90;99.90;;;;;;4977167;28;20199;-72
2024/01/01 08:27:23;;;;;;;6.83;2.00;;;5.00;99.90;;;;;;4976990;28;20799;-72
2024/01/01 08:29:50;;;;;;;5.20;2.70;;;5.10;99.90;;;;;;4976991;28;20251;-71
2024/01/01 08:32:17;;;;;;;6.23;2.70;;;5.10;99.90;;;;;;4976913;28;20228;-72
2024/01/01 08:34:43;;;;;;;7.07;2.43;;;5.10;99.90;;;;;;4976731;28;20207;-72
2024/01/01 08:37:10;;;;;;;6.60;2.60;;;5.20;99.90;;;;;;4976794;28;20200;-72
2024/01/01 08:39:37;;;;;;;5.93;2.50;;;5.30;99.90;;;;;;4976877;28;20290;-72
2024/01/01 08:42:07;;;;;;;5.57;2.50;;;5.30;99.90;;;;;;4976550;28;20235;-73
2024/01/01 08:44:33;;;;;;;5.20;2.13;;;5.30;99.90;;;;;;4976532;28;20208;-72
2024/01/01 08:47:00;;;;;;;5.57;2.40;;;5.30;99.90;;;;;;4976348;28;20530;-71
2024/01/01 08:49:26;;;;;;;7.30;2.50;;;5.30;99.90;;;;;;4976378;28;20204;-72
2024/01/01 08:51:53;;;;;;;4.27;1.93;;;5.30;99.90;;;;;;4976432;28;20224;-71
2024/01/01 08:54:19;;;;;;;8.63;2.70;;;5.40;99.90;;;;;;4976469;28;20259;-71
2024/01/01 08:56:46;;;;;;;6.33;2.20;;;5.40;99.90;;;;;;4976285;28;20224;-71
2024/01/01 08:59:15;;;;;;;7.33;2.00;;;5.40;99.90;;;;;;4976427;28;20204;-72
2024/01/01 09:01:44;;;;;;;5.20;2.03;;;5.70;99.90;;;;;;4975476;28;20204;-71
2024/01/01 09:04:10;;;;;;;4.20;2.00;;;5.80;99.90;;;;;;4976103;28;20200;-71
2024/01/01 09:06:37;;;;;;;5.70;2.10;;;5.80;99.90;;;;;;4976428;28;20212;-71
2024/01/01 09:09:04;;;;;;;3.33;1.50;;;5.80;99.90;;;;;;4976154;28;20660;-71
2024/01/01 09:11:30;;;;;;;3.43;1.70;;;5.70;99.90;;;;;;4976151;28;20228;-72
2024/01/01 09:13:57;;;;;;;3.87;1.90;;;5.90;99.90;;;;;;4976038;28;20204;-70
2024/01/01 09:16:29;;;;;;;6.40;2.27;;;6.00;99.90;;;;;;4975847;28;20534;-70
2024/01/01 09:18:56;;;;;;;10.63;2.07;;;6.30;99.90;;;;;;4976137;28;20772;-71
2024/01/01 09:21:24;;;;;;;5.47;1.80;;;6.40;99.90;;;;;;4975978;28;20298;-71
2024/01/01 09:23:51;;;;;;;4.03;2.00;;;6.70;99.90;;;;;;4975803;28;20203;-71
2024/01/01 09:26:17;;;;;;;7.20;2.17;;;6.90;99.90;;;;;;4975505;28;20204;-71
2024/01/01 09:28:44;;;;;;;6.13;2.17;;;7.10;99.90;;;;;;4975513;28;20196;-71
2024/01/01 09:31:11;;;;;;;4.33;2.33;;;6.90;99.90;;;;;;4975498;28;20203;-71
2024/01/01 09:33:39;;;;;;;7.87;2.47;;;6.70;99.90;;;;;;4975682;28;20283;-71
2024/01/01 09:36:07;;;;;;;4.27;2.00;;;6.70;99.90;;;;;;4975767;28;20258;-71
2024/01/01 09:38:33;;;;;;;5.57;1.90;;;6.70;99.90;;;;;;4975682;28;20199;-71
2024/01/01 09:41:00;;;;;;;5.97;2.10;;;6.70;99.90;;;;;;4975556;28;20201;-72
2024/01/01 09:43:27;;;;;;;5.30;1.87;;;6.50;99.90;;;;;;4975244;28;20295;-71
2024/01/01 09:45:54;;;;;;;7.87;2.07;;;6.50;99.90;;;;;;4975439;28;20211;-72
2024/01/01 09:48:21;;;;;;;3.40;1.80;;;6.40;99.90;;;;;;4975423;28;20263;-72
2024/01/01 09:50:49;;;;;;;6.57;2.00;;;6.40;99.90;;;;;;4975379;28;20201;-71
2024/01/01 09:53:18;;;;;;;5.57;1.87;;;6.40;99.90;;;;;;4975225;28;20240;-72
2024/01/01 09:55:51;;;;;;;6.13;1.60;;;6.40;99.90;;;;;;4975349;28;20295;-71
2024/01/01 09:58:18;;;;;;;5.13;1.70;;;6.40;99.90;;;;;;4975204;28;20222;-72
2024/01/01 10:00:44;;;;;;;4.13;1.77;;;6.40;99.90;;;;;;4975212;28;20204;-72
2024/01/01 10:03:11;;;;;;;5.90;1.70;;;6.50;99.90;;;;;;4975383;28;20258;-72
2024/01/01 10:05:38;;;;;;;6.93;1.57;;;6.40;99.90;;;;;;4974923;28;20235;-71
2024/01/01 10:08:11;;;;;;;8.30;1.90;;;6.40;99.90;;;;;;4975093;28;20216;-73
2024/01/01 10:10:41;;;;;;;5.73;1.93;;;6.50;99.90;;;;;;4975024;28;20212;-71
2024/01/01 10:13:09;;;;;;;7.40;1.97;;;6.60;99.90;;;;;;4975029;28;20228;-71
2024/01/01 10:15:36;;;;;;;7.23;2.47;;;6.70;99.90;;;;;;4974938;28;20200;-71
2024/01/01 10:18:10;;;;;;;4.13;1.90;;;6.70;99.90;;;;;;4975059;28;20231;-71
2024/01/01 10:20:38;;;;;;;4.20;1.60;;;6.80;99.90;;;;;;4974863;28;20204;-71
2024/01/01 10:23:26;;;;;;;9.17;2.10;;;6.80;99.90;;;;;;4974681;28;20679;-71
2024/01/01 10:26:03;;;;;;;12.87;7.63;;;6.90;99.90;;;;;;4975087;28;20196;-71
2024/01/01 10:28:31;;;;;;;5.73;1.97;;;6.90;99.90;;;;;;4974775;28;20195;-71
2024/01/01 10:30:59;;;;;;;5.77;2.23;;;6.90;99.90;;;;;;4974789;28;20283;-72
2024/01/01 10:33:27;;;;;;;5.37;1.80;;;7.00;99.90;;;;;;4974669;28;20660;-72
2024/01/01 10:35:54;;;;;;;7.10;1.90;;;7.00;99.90;;;;;;4974707;28;20204;-71
2024/01/01 10:38:25;;;;;;;8.63;3.30;;;7.00;99.90;;;;;;4974585;28;20235;-71
2024/01/01 10:40:55;;;;;;;5.17;2.00;;;7.10;99.90;;;;;;4974518;28;20200;-71
2024/01/01 10:43:25;;;;;;;10.93;2.50;;;6.90;99.90;;;;;;4974449;28;20294;-71
2024/01/01 10:45:56;;;;;;;5.10;2.10;;;6.90;99.90;;;;;;4974422;28;20210;-71
2024/01/01 10:48:23;;;;;;;5.77;1.80;;;6.80;99.90;;;;;;4974667;28;20199;-71
2024/01/01 10:51:00;;;;;;;6.73;2.00;;;6.90;99.90;;;;;;4974618;28;20204;-72
2024/01/01 10:53:42;;;;;;;5.57;2.00;;;6.90;99.90;;;;;;4974554;28;20315;-71
2024/01/01 10:56:21;;;;;;;5.93;2.10;;;6.90;99.90;;;;;;4974317;28;20211;-71
2024/01/01 10:59:03;;;;;;;7.03;1.83;;;7.00;99.90;;;;;;4974611;28;20257;-71
2024/01/01 11:01:30;;;;;;;8.83;2.40;;;7.00;99.90;;;;;;4974446;28;20629;-72
2024/01/01 11:03:57;;;;;;;6.30;2.10;;;7.00;99.90;;;;;;4974422;28;20283;-72
2024/01/01 11:06:28;;;;;;;7.70;1.80;;;7.10;99.90;;;;;;4974280;28;20205;-72
2024/01/01 11:08:56;;;;;;;6.90;2.00;;;7.00;99.90;;;;;;4974237;28;20204;-72
2024/01/01 11:11:27;;;;;;;6.70;2.27;;;7.00;99.90;;;;;;4973847;28;20208;-72
2024/01/01 11:13:55;;;;;;;6.33;1.73;;;6.90;99.90;;;;;;4974357;28;20315;-72
2024/01/01 11:16:26;;;;;;;7.00;2.50;;;6.90;99.90;;;;;;4974045;28;20238;-71
2024/01/01 11:18:56;;;;;;;4.70;1.97;;;7.00;99.90;;;;;;4974265;28;20200;-72
2024/01/01 11:21:30;;;;;;;6.20;2.10;;;7.00;99.90;;;;;;4974153;28;20207;-72
2024/01/01 11:24:01;;;;;;;7.80;2.00;;;6.90;99.90;;;;;;4976574;28;20284;-71
2024/01/01 11:26:35;;;;;;;5.27;2.00;;;6.90;99.90;;;;;;4980557;28;20656;-71
2024/01/01 11:29:04;;;;;;;6.37;2.13;;;6.90;99.90;;;;;;4980379;28;20196;-72
2024/01/01 11:31:32;;;;;;;9.07;3.70;;;6.90;99.90;;;;;;4980420;28;20213;-72
2024/01/01 11:34:04;;;;;;;10.07;5.20;;;6.90;99.90;;;;;;4980259;28;20254;-71
2024/01/01 11:36:30;;;;;;;7.60;2.20;;;6.90;99.90;;;;;;4980462;28;20632;-71
2024/01/01 11:38:59;;;;;;;8.13;2.07;;;6.90;99.90;;;;;;4980372;28;20252;-71
2024/01/01 11:41:26;;;;;;;11.47;2.83;;;6.80;99.90;;;;;;4980306;28;20196;-72
2024/01/01 11:43:53;;;;;;;6.33;2.00;;;6.80;99.90;;;;;;4980112;28;20232;-72
2024/01/01 11:46:26;;;;;;;5.60;2.00;;;6.80;99.90;;;;;;4980153;28;20541;-72
2024/01/01 11:49:00;;;;;;;4.93;2.20;;;6.80;99.90;;;;;;4980339;28;20232;-71
2024/01/01 11:51:30;;;;;;;10.27;3.17;;;6.80;99.90;;;;;;4980069;28;20609;-72
2024/01/01 11:54:09;;;;;;;5.97;1.80;;;6.80;99.90;;;;;;4980149;28;20232;-72
2024/01/01 11:56:36;;;;;;;5.43;2.10;;;6.90;99.90;;;;;;4980108;28;20282;-72
2024/01/01 11:59:04;;;;;;;7.03;2.50;;;7.00;99.90;;;;;;4979911;28;20290;-71
2024/01/01 12:01:31;;;;;;;9.93;5.10;;;7.00;99.90;;;;;;4980191;28;20647;-71
2024/01/01 12:04:01;;;;;;;7.13;3.70;;;7.10;99.90;;;;;;4980149;28;20212;-71
2024/01/01 12:06:28;;;;;;;8.80;2.30;;;7.00;99.90;;;;;;4980140;28;20724;-70
2024/01/01 12:09:10;;;;;;;5.93;1.63;;;6.90;99.90;;;;;;4979977;28;20287;-71
2024/01/01 12:11:38;;;;;;;6.17;2.37;;;6.60;99.90;;;;;;4979941;28;20664;-71
2024/01/01 12:14:05;;;;;;;7.37;3.00;;;6.20;99.90;;;;;;4980049;28;20295;-71
2024/01/01 12:16:32;;;;;;;7.50;2.33;;;6.30;99.90;;;;;;4979954;28;20207;-72
2024/01/01 12:19:00;;;;;;;12.83;3.00;;;6.40;99.90;;;;;;4979779;28;20200;-71
2024/01/01 12:21:37;;;;;;;7.03;2.00;;;6.50;99.90;;;;;;4979857;28;20196;-71
2024/01/01 12:24:04;;;;;;;8.10;2.93;;;6.60;99.90;;;;;;4979713;28;20267;-71
2024/01/01 12:26:34;;;;;;;6.67;2.40;;;6.70;99.90;;;;;;4979912;28;20204;-72
2024/01/01 12:29:11;;;;;;;6.93;2.80;;;6.80;99.90;;;;;;4979933;28;20207;-73
2024/01/01 12:31:39;;;;;;;8.47;3.20;;;7.10;99.90;;;;;;4979799;28;20666;-72
2024/01/01 12:34:06;;;;;;;7.70;2.57;;;7.90;99.90;;;;;;4979755;28;20231;-72
2024/01/01 12:36:33;;;;;;;8.03;2.23;;;7.70;99.90;;;;;;4975744;28;20243;-71
2024/01/01 12:39:01;;;;;;;14.23;5.17;;;7.70;99.90;;;;;;4976671;28;20208;-72
2024/01/01 12:41:27;;;;;;;7.00;2.10;;;7.70;99.90;;;;;;4976739;28;20200;-72
2024/01/01 12:43:56;;;;;;;14.20;2.43;;;7.70;99.90;;;;;;4976394;28;20287;-72
2024/01/01 12:46:23;;;;;;;4.30;1.60;;;7.60;99.90;;;;;;4976551;28;20201;-71
2024/01/01 12:48:49;;;;;;;10.60;3.83;;;7.50;99.90;;;;;;4976316;28;20204;-71
2024/01/01 12:51:17;;;;;;;10.03;4.87;;;7.40;99.90;;;;;;4976321;28;20270;-71
2024/01/01 12:53:44;;;;;;;4.83;2.00;;;7.40;99.90;;;;;;4976472;28;20324;-71